Time;durP1;ratioP1;P1;durP2;ratioP2;P2;SDS_P1;SDS_P2;PMS_P1;PMS_P2;Temp;Humidity;BMP_temperature;BMP_pressure;BME280_temperature;BME280_humidity;BME280_pressure;Samples;Min_cycle;Max_cycle;Signal;HPM_P1;HPM_P2
2022/10/18 00:01:46;;;;;;;;;2.33;2.00;;;;;20.12;62.65;100808.16;5036399;28;46294;-74
2022/10/18 00:04:11;;;;;;;;;3.00;3.00;;;;;20.14;62.50;100811.69;5036358;28;45501;-74
2022/10/18 00:06:37;;;;;;;;;6.33;4.00;;;;;20.18;62.27;100824.03;5036392;28;45465;-74
2022/10/18 00:09:03;;;;;;;;;4.00;4.00;;;;;20.23;62.79;100833.75;5037352;28;45841;-75
2022/10/18 00:11:28;;;;;;;;;4.67;4.00;;;;;20.09;62.92;100817.00;5051746;28;45663;-73
2022/10/18 00:13:56;;;;;;;;;5.33;3.67;;;;;20.15;63.07;100829.34;5051644;28;45514;-74
2022/10/18 00:16:21;;;;;;;;;4.33;3.67;;;;;20.06;62.98;100815.25;5033578;28;45381;-74
2022/10/18 00:18:47;;;;;;;;;3.00;2.33;;;;;20.03;62.66;100809.97;5035890;28;45537;-74
2022/10/18 00:21:20;;;;;;;;;4.00;3.00;;;;;20.04;62.88;100803.75;5034424;28;46292;-74
2022/10/18 00:23:47;;;;;;;;;4.00;3.00;;;;;20.06;62.76;100817.91;5033822;28;45419;-74
2022/10/18 00:26:18;;;;;;;;;3.00;2.33;;;;;20.11;63.06;100824.94;5035840;28;45485;-73
2022/10/18 00:28:45;;;;;;;;;4.00;4.00;;;;;20.10;63.45;100821.41;5057943;28;45533;-74
2022/10/18 00:31:15;;;;;;;;;3.67;3.67;;;;;20.07;63.07;100818.78;5051142;28;45611;-74
2022/10/18 00:33:43;;;;;;;;;4.00;4.00;;;;;20.04;63.68;100813.50;5033260;28;45447;-74
2022/10/18 00:36:09;;;;;;;;;4.00;3.00;;;;;19.96;64.00;100804.69;5035987;28;45509;-74
2022/10/18 00:38:36;;;;;;;;;5.67;4.00;;;;;19.94;63.51;100811.78;5035777;28;45569;-74
2022/10/18 00:41:02;;;;;;;;;4.00;4.00;;;;;19.85;63.35;100802.94;5035702;28;47120;-74
2022/10/18 00:43:28;;;;;;;;;4.67;3.67;;;;;19.87;64.02;100813.56;5035663;28;46386;-74
2022/10/18 00:45:53;;;;;;;;;5.00;4.00;;;;;19.80;63.92;100804.75;5035767;28;45425;-74
2022/10/18 00:48:20;;;;;;;;;6.00;3.33;;;;;19.83;63.49;100802.06;5036093;28;45437;-74
2022/10/18 00:50:47;;;;;;;;;4.67;4.00;;;;;19.86;63.54;100793.25;5034405;28;45450;-74
2022/10/18 00:53:17;;;;;;;;;4.00;4.00;;;;;19.90;63.45;100795.00;5034726;28;46117;-74
2022/10/18 00:55:43;;;;;;;;;4.67;4.67;;;;;19.83;63.80;100778.22;5033344;28;45341;-74
2022/10/18 00:58:10;;;;;;;;;7.00;5.00;;;;;19.95;63.12;100789.66;5035785;28;45319;-74
2022/10/18 01:00:39;;;;;;;;;4.00;4.00;;;;;19.98;62.98;100785.22;5035313;28;45251;-74
2022/10/18 01:03:06;;;;;;;;;6.00;5.00;;;;;20.21;62.55;100803.69;5035389;28;45465;-74
2022/10/18 01:05:34;;;;;;;;;7.33;5.00;;;;;20.30;62.25;100796.56;5034400;28;45590;-73
2022/10/18 01:08:05;;;;;;;;;5.00;4.00;;;;;20.32;62.04;100798.31;5035397;28;45563;-74
2022/10/18 01:10:58;;;;;;;;;5.33;4.33;;;;;20.38;62.62;100803.56;5035559;28;46061;-74
2022/10/18 01:13:44;;;;;;;;;5.33;4.00;;;;;20.37;63.00;100814.19;5031813;28;45493;-73
2022/10/18 01:16:30;;;;;;;;;4.00;3.00;;;;;20.19;62.59;100776.28;5033809;28;46620;-74
2022/10/18 01:19:20;;;;;;;;;6.00;4.00;;;;;20.34;63.19;100812.44;5035394;28;45637;-74
2022/10/18 01:22:01;;;;;;;;;7.00;5.00;;;;;20.37;62.69;100808.88;5033144;28;45320;-74
2022/10/18 01:24:53;;;;;;;;;5.33;4.00;;;;;20.24;63.21;100789.53;5033160;28;45509;-73
2022/10/18 01:27:33;;;;;;;;;5.67;5.00;;;;;20.42;62.20;100804.44;5034833;28;45403;-74
2022/10/18 01:30:36;;;;;;;;;4.00;3.67;;;;;20.52;62.03;100800.84;5035715;28;45462;-74
2022/10/18 01:33:13;;;;;;;;;5.67;4.00;;;;;20.54;61.30;100785.78;5056550;28;45584;-74
2022/10/18 01:35:46;;;;;;;;;5.00;4.67;;;;;20.81;59.69;100800.66;5033683;28;45485;-74
2022/10/18 01:38:16;;;;;;;;;5.00;4.67;;;;;21.00;58.68;100792.53;5035160;28;45522;-74
2022/10/18 01:40:46;;;;;;;;;5.00;4.00;;;;;21.25;58.31;100791.41;5032847;28;45168;-74
2022/10/18 01:43:15;;;;;;;;;4.00;3.33;;;;;21.36;57.38;100782.44;5033470;28;47397;-74
2022/10/18 01:45:41;;;;;;;;;4.67;4.67;;;;;21.50;57.17;100777.00;5034618;28;45438;-74
2022/10/18 01:48:08;;;;;;;;;4.00;3.33;;;;;21.67;56.75;100782.13;5034966;28;45358;-74
2022/10/18 01:50:34;;;;;;;;;6.00;5.33;;;;;21.77;56.00;100787.31;5034983;28;45477;-74
2022/10/18 01:53:00;;;;;;;;;5.00;4.67;;;;;21.74;56.51;100767.84;5050380;28;46948;-73
2022/10/18 01:55:43;;;;;;;;;5.00;4.33;;;;;21.88;55.85;100767.66;5034869;28;45460;-74
2022/10/18 01:58:27;;;;;;;;;5.33;4.00;;;;;22.07;55.21;100790.47;5034863;28;45491;-74
2022/10/18 02:01:06;;;;;;;;;6.67;6.00;;;;;22.07;55.28;100770.97;5034266;28;45357;-74
2022/10/18 02:03:35;;;;;;;;;5.00;5.00;;;;;22.13;54.99;100765.56;5037323;28;45964;-73
2022/10/18 02:06:31;;;;;;;;;6.00;4.00;;;;;22.21;54.99;100766.31;5035451;28;45166;-74
2022/10/18 02:09:08;;;;;;;;;8.67;4.67;;;;;22.30;54.81;100781.31;5072087;28;45434;-74
2022/10/18 02:11:36;;;;;;;;;5.00;4.67;;;;;22.31;55.07;100783.06;5039755;28;45540;-74
2022/10/18 02:14:10;;;;;;;;;5.67;4.00;;;;;22.28;54.38;100767.13;5039817;28;46679;-74
2022/10/18 02:16:49;;;;;;;;;7.00;5.00;;;;;22.34;54.08;100765.28;5038992;28;45625;-74
2022/10/18 02:19:31;;;;;;;;;6.00;5.00;;;;;22.38;54.00;100769.66;5039296;28;45549;-74
2022/10/18 02:21:58;;;;;;;;;5.67;4.67;;;;;22.39;53.92;100775.84;5039389;28;45377;-74
2022/10/18 02:24:33;;;;;;;;;4.33;4.00;;;;;22.16;54.63;100749.53;5039430;28;46026;-74
2022/10/18 02:26:59;;;;;;;;;5.00;5.00;;;;;22.23;54.45;100767.19;5039301;28;45403;-74
2022/10/18 02:29:25;;;;;;;;;8.67;7.00;;;;;22.26;54.82;100768.94;5039578;28;45451;-74
2022/10/18 02:32:03;;;;;;;;;6.67;6.00;;;;;22.16;54.76;100771.72;5039783;28;45632;-74
2022/10/18 02:34:36;;;;;;;;;4.00;4.00;;;;;22.24;54.91;100775.19;5071858;27;46343;-74
2022/10/18 02:37:02;;;;;;;;;6.00;5.00;;;;;22.22;55.19;100779.63;5038213;28;45312;-74
2022/10/18 02:39:39;;;;;;;;;4.00;3.00;;;;;22.19;55.23;100768.13;5037912;28;45306;-74
2022/10/18 02:42:05;;;;;;;;;6.33;5.00;;;;;22.09;55.21;100756.72;5039921;28;45409;-75
2022/10/18 02:44:34;;;;;;;;;5.33;4.67;;;;;22.02;55.44;100753.28;5039191;28;46202;-74
2022/10/18 02:47:01;;;;;;;;;4.67;4.33;;;;;22.03;55.32;100752.38;5039151;28;45327;-74
2022/10/18 02:49:27;;;;;;;;;7.33;5.00;;;;;21.95;55.02;100738.31;5039225;28;45281;-74
2022/10/18 02:51:52;;;;;;;;;6.33;4.33;;;;;21.82;55.40;100726.06;5037857;28;45653;-74
2022/10/18 02:54:18;;;;;;;;;6.00;5.00;;;;;21.88;55.09;100749.03;5039015;28;46273;-74
2022/10/18 02:56:43;;;;;;;;;5.00;5.00;;;;;21.84;55.34;100746.44;5037570;28;45268;-74
2022/10/18 02:59:10;;;;;;;;;6.00;6.00;;;;;21.84;55.46;100740.22;5039212;28;45404;-74
2022/10/18 03:01:36;;;;;;;;;3.33;3.00;;;;;21.83;55.08;100746.47;5039459;28;45489;-74
2022/10/18 03:04:02;;;;;;;;;5.67;5.00;;;;;21.69;55.59;100719.19;5038717;28;45492;-74
2022/10/18 03:06:28;;;;;;;;;5.33;5.33;;;;;21.74;54.72;100717.31;5071034;28;45457;-74
2022/10/18 03:08:53;;;;;;;;;6.00;6.00;;;;;21.88;54.71;100741.94;5037489;28;45561;-74
2022/10/18 03:11:19;;;;;;;;;5.33;4.00;;;;;21.89;54.58;100750.81;5039165;28;45501;-74
2022/10/18 03:13:44;;;;;;;;;6.00;5.33;;;;;21.99;54.40;100745.34;5036146;28;45396;-74
2022/10/18 03:16:11;;;;;;;;;5.67;4.00;;;;;21.93;54.69;100718.84;5038196;28;45422;-74
2022/10/18 03:18:36;;;;;;;;;5.00;4.00;;;;;21.87;54.74;100734.88;5039158;28;45408;-74
2022/10/18 03:21:06;;;;;;;;;4.33;4.00;;;;;21.84;55.17;100733.16;5038702;28;45417;-74
2022/10/18 03:23:31;;;;;;;;;6.00;5.00;;;;;21.83;54.80;100730.50;5038609;28;46496;-74
2022/10/18 03:25:57;;;;;;;;;5.00;5.00;;;;;21.91;54.53;100741.91;5038180;28;45501;-74
2022/10/18 03:28:22;;;;;;;;;5.00;4.33;;;;;21.89;54.65;100749.03;5038671;28;45461;-74
2022/10/18 03:30:48;;;;;;;;;7.00;5.33;;;;;21.81;54.14;100722.53;5038649;28;45557;-74
2022/10/18 03:33:13;;;;;;;;;5.00;4.67;;;;;21.94;54.59;100736.53;5037770;28;47504;-74
2022/10/18 03:35:39;;;;;;;;;7.00;6.00;;;;;21.94;53.94;100741.84;5038019;28;45416;-74
2022/10/18 03:38:04;;;;;;;;;6.00;4.33;;;;;21.88;54.46;100730.44;5038680;28;45523;-74
2022/10/18 03:40:31;;;;;;;;;8.00;5.33;;;;;21.84;54.51;100716.28;5038694;28;45181;-74
2022/10/18 03:42:56;;;;;;;;;6.33;5.00;;;;;21.93;54.11;100734.78;5038277;28;46309;-74
2022/10/18 03:45:22;;;;;;;;;4.67;4.00;;;;;21.81;54.47;100708.38;5038223;28;45212;-73
2022/10/18 03:47:47;;;;;;;;;5.00;3.33;;;;;21.91;54.23;100731.28;5038014;28;45295;-74
2022/10/18 03:50:13;;;;;;;;;4.33;4.00;;;;;21.90;54.25;100725.97;5038025;28;45551;-74
2022/10/18 03:52:38;;;;;;;;;5.67;5.33;;;;;21.49;54.21;100653.84;5037932;28;46274;-74
2022/10/18 03:55:04;;;;;;;;;6.00;5.00;;;;;21.88;54.31;100720.66;5070399;28;45488;-75
2022/10/18 03:57:30;;;;;;;;;6.33;5.00;;;;;21.93;53.98;100721.50;5038007;28;45481;-74
2022/10/18 03:59:55;;;;;;;;;5.67;4.00;;;;;21.88;54.18;100723.31;5070314;28;45625;-74
2022/10/18 04:02:21;;;;;;;;;6.00;4.33;;;;;21.90;54.40;100732.16;5036295;28;47718;-74
2022/10/18 04:04:46;;;;;;;;;6.33;6.00;;;;;21.67;54.30;100708.56;5036277;28;45415;-74
2022/10/18 04:07:12;;;;;;;;;6.00;5.00;;;;;21.81;54.66;100745.59;5038052;28;45350;-74
2022/10/18 04:09:37;;;;;;;;;5.33;4.00;;;;;21.72;54.56;100738.59;5038476;28;45287;-73
2022/10/18 04:12:03;;;;;;;;;6.33;6.33;;;;;21.69;55.35;100743.09;5036336;28;46916;-74
2022/10/18 04:14:29;;;;;;;;;6.00;5.00;;;;;21.59;55.57;100735.22;5037734;28;45426;-74
2022/10/18 04:16:54;;;;;;;;;7.00;4.67;;;;;21.53;55.87;100745.06;5037633;28;45422;-74
2022/10/18 04:19:20;;;;;;;;;6.67;4.00;;;;;21.45;56.39;100739.84;5037568;28;45488;-74
2022/10/18 04:21:45;;;;;;;;;5.00;4.33;;;;;21.40;56.31;100747.81;5037460;28;45406;-74
2022/10/18 04:24:11;;;;;;;;;6.00;5.00;;;;;21.36;56.52;100747.88;5037707;28;45325;-73
2022/10/18 04:26:36;;;;;;;;;7.67;6.33;;;;;21.25;56.59;100748.00;5070362;28;45235;-74
2022/10/18 04:29:03;;;;;;;;;6.33;5.33;;;;;21.29;56.29;100760.38;5037917;28;45490;-74
2022/10/18 04:31:28;;;;;;;;;5.33;4.67;;;;;21.21;56.35;100741.84;5037295;28;46136;-74
2022/10/18 04:33:54;;;;;;;;;5.67;4.67;;;;;21.40;55.31;100754.91;5035256;28;45340;-74
2022/10/18 04:36:19;;;;;;;;;5.33;1.33;;;;;21.41;54.78;100740.75;5036326;28;45524;-74
2022/10/18 04:38:45;;;;;;;;;6.00;5.00;;;;;21.57;54.37;100741.47;5069961;28;45399;-74
2022/10/18 04:41:11;;;;;;;;;4.33;3.67;;;;;21.68;54.36;100733.34;5037641;28;46594;-74
2022/10/18 04:43:36;;;;;;;;;5.00;4.67;;;;;;;;5069591;28;45584;-74
2022/10/18 04:46:02;;;;;;;;;5.00;4.67;;;;;21.74;54.00;100733.28;5037492;28;45389;-74
2022/10/18 04:48:27;;;;;;;;;5.33;5.33;;;;;21.62;53.95;100716.56;5037575;28;45410;-74
2022/10/18 04:50:53;;;;;;;;;5.00;4.00;;;;;21.81;53.71;100734.97;5037507;28;45500;-74
2022/10/18 04:53:19;;;;;;;;;5.33;5.00;;;;;21.77;53.70;100735.91;5035918;28;45502;-74
2022/10/18 04:55:48;;;;;;;;;5.33;5.00;;;;;21.72;54.09;100741.25;5037387;28;45256;-74
2022/10/18 04:58:15;;;;;;;;;6.33;6.00;;;;;21.65;54.13;100723.66;5034772;28;45431;-74
2022/10/18 05:00:41;;;;;;;;;6.00;5.67;;;;;21.65;53.73;100728.97;5036283;28;46350;-74
2022/10/18 05:03:07;;;;;;;;;6.00;6.00;;;;;21.73;53.83;100740.38;5034440;28;45585;-74
2022/10/18 05:05:33;;;;;;;;;6.67;5.33;;;;;21.78;53.30;100719.91;5035543;28;45261;-74
2022/10/18 05:07:58;;;;;;;;;6.33;4.00;;;;;21.87;52.98;100731.34;5036169;28;45583;-74
2022/10/18 05:10:24;;;;;;;;;5.67;4.00;;;;;21.90;52.76;100708.22;5035825;28;46511;-73
2022/10/18 05:12:49;;;;;;;;;5.67;5.00;;;;;21.53;52.29;100647.59;5035941;28;45415;-74
2022/10/18 05:15:15;;;;;;;;;5.00;4.00;;;;;22.04;52.14;100732.88;5036242;28;45501;-74
2022/10/18 05:17:41;;;;;;;;;5.00;5.00;;;;;22.00;52.48;100727.59;5036430;28;45450;-73
2022/10/18 05:20:06;;;;;;;;;6.67;4.67;;;;;21.96;52.44;100729.41;5035834;28;46436;-74
2022/10/18 05:22:32;;;;;;;;;4.33;3.33;;;;;21.92;53.21;100746.31;5034497;28;45410;-74
2022/10/18 05:24:57;;;;;;;;;4.67;4.00;;;;;21.77;53.82;100744.75;5036727;28;45482;-74
2022/10/18 05:27:23;;;;;;;;;4.00;4.00;;;;;21.63;54.26;100742.28;5052441;28;45252;-74
2022/10/18 05:29:48;;;;;;;;;5.00;4.00;;;;;21.58;54.50;100754.72;5052071;28;47867;-74
2022/10/18 05:32:14;;;;;;;;;7.00;6.00;;;;;21.50;54.59;100755.72;5036779;28;45361;-74
2022/10/18 05:34:39;;;;;;;;;7.00;6.00;;;;;21.47;54.87;100761.06;5036875;28;45281;-74
2022/10/18 05:37:06;;;;;;;;;8.00;5.33;;;;;21.41;54.77;100757.56;5054363;28;45842;-75
2022/10/18 05:39:31;;;;;;;;;7.00;6.00;;;;;21.32;55.07;100748.81;5039878;28;46490;-74
2022/10/18 05:41:57;;;;;;;;;9.00;5.33;;;;;21.38;55.64;100762.03;5039843;28;45542;-74
2022/10/18 05:44:22;;;;;;;;;5.00;4.33;;;;;21.28;55.07;100744.44;5055693;28;45335;-74
2022/10/18 05:46:48;;;;;;;;;8.00;7.00;;;;;21.31;55.15;100750.59;5040284;28;45407;-74
2022/10/18 05:49:14;;;;;;;;;7.67;7.00;;;;;21.30;54.88;100751.47;5040268;28;46423;-74
2022/10/18 05:51:40;;;;;;;;;6.33;4.00;;;;;21.16;55.12;100717.09;5055190;28;45486;-73
2022/10/18 05:54:06;;;;;;;;;4.00;4.00;;;;;21.28;54.43;100731.16;5055419;28;45447;-73
2022/10/18 05:56:31;;;;;;;;;4.67;4.00;;;;;21.32;54.61;100747.03;5055706;28;45580;-73
2022/10/18 05:58:57;;;;;;;;;5.67;5.00;;;;;21.42;53.42;100719.44;5055254;28;45520;-74
2022/10/18 06:01:22;;;;;;;;;4.33;4.00;;;;;21.52;53.44;100722.03;5054796;28;45375;-73
2022/10/18 06:03:49;;;;;;;;;5.67;3.33;;;;;21.63;53.59;100726.31;5039607;28;45648;-73
2022/10/18 06:06:15;;;;;;;;;5.67;4.33;;;;;21.59;53.88;100732.56;5040392;28;45447;-74
2022/10/18 06:08:42;;;;;;;;;4.00;4.00;;;;;21.68;53.38;100726.25;5054931;28;45438;-73
2022/10/18 06:11:08;;;;;;;;;4.00;4.00;;;;;21.72;53.10;100724.44;5039734;28;45406;-74
2022/10/18 06:13:34;;;;;;;;;3.67;3.33;;;;;21.56;53.35;100699.84;5055115;28;45283;-74
2022/10/18 06:15:59;;;;;;;;;5.33;3.67;;;;;21.67;52.99;100721.84;5039570;28;45297;-74
2022/10/18 06:18:25;;;;;;;;;5.00;4.00;;;;;21.72;53.01;100712.00;5039191;28;46447;-73
2022/10/18 06:20:57;;;;;;;;;6.67;4.67;;;;;21.78;52.38;100713.72;5038766;28;45476;-74
2022/10/18 06:23:24;;;;;;;;;8.00;5.00;;;;;21.96;52.21;100716.09;5052938;28;45608;-74
2022/10/18 06:25:49;;;;;;;;;5.33;4.33;;;;;21.85;52.49;100691.47;5037755;28;45489;-73
2022/10/18 06:28:15;;;;;;;;;7.33;4.33;;;;;21.91;51.36;100685.19;5036499;28;46752;-74
2022/10/18 06:30:40;;;;;;;;;6.00;3.33;;;;;22.13;51.25;100699.03;5037451;28;45564;-73
2022/10/18 06:33:06;;;;;;;;;5.00;4.00;;;;;22.16;51.13;100704.31;5038300;28;45480;-74
2022/10/18 06:35:31;;;;;;;;;5.00;5.00;;;;;22.19;51.58;100704.28;5038335;28;45525;-74
2022/10/18 06:37:57;;;;;;;;;5.67;4.00;;;;;22.02;51.45;100665.50;5054204;28;45498;-74
2022/10/18 06:40:22;;;;;;;;;3.67;3.00;;;;;22.35;50.65;100710.25;5037449;28;46282;-74
2022/10/18 06:42:48;;;;;;;;;4.67;3.00;;;;;22.37;50.15;100682.72;5038307;28;45517;-73
2022/10/18 06:45:16;;;;;;;;;4.00;4.00;;;;;22.41;50.20;100695.06;5053426;28;45469;-75
2022/10/18 06:47:42;;;;;;;;;6.00;4.33;;;;;22.33;50.13;100688.13;5032866;28;46692;-73
2022/10/18 06:50:08;;;;;;;;;4.00;3.67;;;;;22.52;50.02;100705.56;5036719;28;45327;-74
2022/10/18 06:52:34;;;;;;;;;4.00;3.33;;;;;22.60;50.39;100714.28;5037604;28;45498;-74
2022/10/18 06:54:59;;;;;;;;;5.00;4.00;;;;;22.67;49.54;100712.38;5038712;28;45368;-74
2022/10/18 06:57:25;;;;;;;;;5.67;4.00;;;;;22.72;49.43;100706.97;5053223;28;45461;-74
2022/10/18 06:59:50;;;;;;;;;3.33;2.67;;;;;22.75;49.72;100698.94;5037447;28;45185;-74
2022/10/18 07:02:16;;;;;;;;;7.00;5.00;;;;;22.93;49.32;100727.91;5038243;28;45420;-74
2022/10/18 07:04:42;;;;;;;;;4.00;4.00;;;;;22.86;49.80;100701.38;5038243;28;45478;-73
2022/10/18 07:07:08;;;;;;;;;4.67;4.67;;;;;22.94;49.50;100710.13;5035873;28;46478;-73
2022/10/18 07:09:34;;;;;;;;;4.33;4.00;;;;;23.04;49.30;100717.09;5036802;28;45538;-74
2022/10/18 07:12:00;;;;;;;;;5.33;4.67;;;;;23.07;48.74;100711.69;5037502;28;45497;-74
2022/10/18 07:14:25;;;;;;;;;4.33;4.33;;;;;23.08;48.63;100718.78;5036194;28;45542;-74
2022/10/18 07:16:51;;;;;;;;;5.33;4.00;;;;;23.07;48.88;100717.00;5035692;28;47855;-74
2022/10/18 07:19:16;;;;;;;;;5.00;3.67;;;;;23.15;48.72;100723.06;5052664;28;45605;-74
2022/10/18 07:21:42;;;;;;;;;4.67;4.00;;;;;23.20;48.68;100710.56;5035118;28;45411;-74
2022/10/18 07:24:07;;;;;;;;;3.33;3.33;;;;;23.35;49.19;100732.47;5037426;28;45365;-74
2022/10/18 07:26:34;;;;;;;;;7.00;6.00;;;;;23.43;49.19;100730.53;5037348;28;45599;-74
2022/10/18 07:29:08;;;;;;;;;3.00;2.00;;;;;23.51;48.66;100730.38;5037346;28;45315;-74
2022/10/18 07:31:35;;;;;;;;;4.33;3.67;;;;;23.55;48.00;100711.59;5034354;28;45419;-73
2022/10/18 07:34:03;;;;;;;;;5.00;4.00;;;;;23.63;47.66;100714.13;5037925;28;45425;-74
2022/10/18 07:36:29;;;;;;;;;6.00;4.00;;;;;23.76;47.76;100736.09;5037055;28;46609;-74
2022/10/18 07:38:54;;;;;;;;;7.00;5.00;;;;;23.90;48.21;100738.50;5037653;28;45509;-73
2022/10/18 07:41:21;;;;;;;;;4.00;4.00;;;;;24.49;46.73;100740.66;5035825;28;45461;-74
2022/10/18 07:43:49;;;;;;;;;5.67;4.33;;;;;26.81;42.43;100743.81;5037003;28;45630;-75
2022/10/18 07:46:16;;;;;;;;;3.67;3.67;;;;;28.62;39.48;100744.19;5036246;28;46868;-73
2022/10/18 07:48:41;;;;;;;;;4.00;4.00;;;;;29.80;36.42;100744.34;5037623;28;45410;-73
2022/10/18 07:51:08;;;;;;;;;6.00;5.00;;;;;30.93;36.25;100745.16;5036295;28;45549;-73
2022/10/18 07:53:33;;;;;;;;;6.00;5.00;;;;;31.61;33.94;100731.63;5036500;28;45344;-74
2022/10/18 07:56:04;;;;;;;;;5.00;4.00;;;;;32.25;32.94;100748.81;5036988;28;45484;-73
2022/10/18 07:58:33;;;;;;;;;6.00;5.67;;;;;32.77;31.48;100738.59;5037021;28;45501;-73
2022/10/18 08:01:06;;;;;;;;;6.00;4.33;;;;;33.31;31.51;100747.06;5037271;28;45443;-73
2022/10/18 08:03:32;;;;;;;;;3.00;3.00;;;;;34.00;31.12;100761.69;5037863;28;45414;-74
2022/10/18 08:05:57;;;;;;;;;2.33;2.33;;;;;34.42;29.83;100743.59;5034927;28;46327;-73
2022/10/18 08:08:24;;;;;;;;;4.67;4.33;;;;;34.95;29.00;100745.47;5051689;28;45363;-74
2022/10/18 08:10:50;;;;;;;;;3.00;3.00;;;;;35.58;28.74;100763.66;5035489;28;45459;-73
2022/10/18 08:13:16;;;;;;;;;5.00;5.00;;;;;36.02;27.97;100729.69;5036597;28;45245;-74
2022/10/18 08:15:42;;;;;;;;;3.33;2.67;;;;;36.67;27.51;100760.25;5036413;28;46186;-74
2022/10/18 08:18:08;;;;;;;;;4.00;4.00;;;;;37.12;26.33;100751.38;5036476;28;45524;-75
2022/10/18 08:20:35;;;;;;;;;3.00;2.00;;;;;37.56;26.67;100763.31;5036765;28;45620;-73
2022/10/18 08:23:04;;;;;;;;;4.00;3.33;;;;;37.93;26.21;100757.63;5037108;28;45593;-74
2022/10/18 08:25:30;;;;;;;;;4.00;3.33;;;;;38.32;25.47;100755.31;5036425;28;45678;-74
2022/10/18 08:27:56;;;;;;;;;2.67;2.67;;;;;38.64;25.19;100755.38;5036188;28;45390;-75
2022/10/18 08:30:22;;;;;;;;;5.00;3.00;;;;;38.75;24.96;100744.38;5037151;28;45462;-74
2022/10/18 08:32:48;;;;;;;;;5.00;4.67;;;;;38.91;24.34;100737.63;5035933;28;45319;-77
2022/10/18 08:35:14;;;;;;;;;4.00;4.00;;;;;38.91;24.39;100723.97;5052024;28;47258;-75
2022/10/18 08:37:40;;;;;;;;;4.33;3.33;;;;;39.18;23.89;100737.97;5069922;28;45532;-74
2022/10/18 08:40:06;;;;;;;;;5.33;4.67;;;;;39.20;23.67;100726.91;5037400;28;45477;-74
2022/10/18 08:43:09;;;;;;;;;4.00;3.67;;;;;38.85;23.76;100676.19;5036613;28;45599;-74
2022/10/18 08:45:40;;;;;;;;;2.67;2.67;;;;;39.32;23.18;100738.63;5036740;28;45626;-74
2022/10/18 08:48:15;;;;;;;;;3.67;3.00;;;;;39.56;23.29;100760.19;5069209;28;45460;-74
2022/10/18 08:50:41;;;;;;;;;3.33;3.33;;;;;39.27;23.88;100716.28;5036800;28;45500;-75
2022/10/18 08:53:32;;;;;;;;;4.00;3.00;;;;;39.42;24.12;100760.53;5069361;28;45794;-74
2022/10/18 08:56:09;;;;;;;;;4.67;4.00;;;;;39.27;24.24;100741.75;5036851;28;46717;-75
2022/10/18 08:58:36;;;;;;;;;3.00;3.00;;;;;39.11;25.21;100746.84;5069162;28;45535;-74
2022/10/18 09:01:22;;;;;;;;;3.33;2.33;;;;;38.95;25.08;100753.59;5035815;28;45524;-75
2022/10/18 09:04:11;;;;;;;;;5.33;5.33;;;;;38.71;25.45;100739.34;5037121;28;45390;-75
2022/10/18 09:06:40;;;;;;;;;4.67;3.67;;;;;38.61;25.03;100743.84;5068938;28;46421;-75
2022/10/18 09:09:30;;;;;;;;;5.33;3.33;;;;;38.48;25.45;100747.59;5035024;28;45557;-75
2022/10/18 09:12:08;;;;;;;;;7.67;7.33;;;;;38.18;25.18;100746.47;5036004;28;45501;-75
2022/10/18 09:15:00;;;;;;;;;4.33;4.00;;;;;38.07;25.29;100740.16;5037004;28;45234;-75
2022/10/18 09:17:31;;;;;;;;;4.67;3.67;;;;;38.01;24.44;100752.41;5036391;28;45701;-75
2022/10/18 09:19:57;;;;;;;;;4.33;3.00;;;;;37.92;26.10;100753.16;5036476;28;45438;-75
2022/10/18 09:22:47;;;;;;;;;4.00;2.00;;;;;37.65;24.79;100746.25;5037134;28;45480;-75
2022/10/18 09:25:23;;;;;;;;;5.00;4.67;;;;;37.43;25.47;100722.56;5069043;28;45610;-75
2022/10/18 09:28:12;;;;;;;;;5.00;4.00;;;;;37.28;25.02;100743.72;5036067;28;45565;-75
2022/10/18 09:30:56;;;;;;;;;3.67;3.33;;;;;37.37;25.07;100745.72;5036063;28;45458;-75
2022/10/18 09:33:44;;;;;;;;;4.33;2.33;;;;;37.29;25.10;100742.75;5036786;28;45437;-75
2022/10/18 09:36:19;;;;;;;;;9.33;5.67;;;;;36.97;25.29;100743.41;5036567;28;45521;-75
2022/10/18 09:38:52;;;;;;;;;4.00;4.00;;;;;36.71;25.81;100711.88;5036182;28;45615;-75
2022/10/18 09:41:30;;;;;;;;;5.00;4.00;;;;;36.75;25.10;100744.19;5036425;28;45427;-74
2022/10/18 09:44:05;;;;;;;;;5.00;4.00;;;;;36.75;25.34;100738.75;5036637;28;45434;-75
2022/10/18 09:46:37;;;;;;;;;3.67;3.00;;;;;36.67;24.81;100732.16;5034683;28;45626;-75
2022/10/18 09:49:22;;;;;;;;;3.33;3.00;;;;;36.43;25.83;100724.84;5068439;28;48171;-75
2022/10/18 09:51:50;;;;;;;;;5.00;4.00;;;;;36.41;26.18;100726.81;5068400;27;45471;-75
2022/10/18 09:54:40;;;;;;;;;3.67;2.33;;;;;36.02;25.60;100699.75;5068297;28;45338;-75
2022/10/18 09:57:16;;;;;;;;;4.00;3.33;;;;;35.82;26.42;100695.81;5034932;28;45593;-75
2022/10/18 09:59:48;;;;;;;;;3.33;3.00;;;;;35.68;25.86;100695.97;5067844;28;45689;-75
2022/10/18 10:02:19;;;;;;;;;4.00;3.00;;;;;35.53;26.66;100707.91;5036118;28;45481;-75
2022/10/18 10:04:45;;;;;;;;;6.00;4.67;;;;;35.40;27.11;100703.38;5036021;28;45219;-75
2022/10/18 10:07:15;;;;;;;;;3.00;3.00;;;;;35.30;27.67;100706.88;5051705;28;45521;-74
2022/10/18 10:10:18;;;;;;;;;4.33;4.33;;;;;35.11;27.28;100708.13;5036025;28;46558;-76
2022/10/18 10:12:44;;;;;;;;;7.00;6.00;;;;;34.72;28.25;100696.38;5032113;28;45697;-75
2022/10/18 10:15:25;;;;;;;;;3.67;2.00;;;;;34.30;28.15;100692.00;5035904;28;45358;-75
2022/10/18 10:18:04;;;;;;;;;5.00;3.33;;;;;34.32;28.14;100692.75;5036050;28;45174;-75
2022/10/18 10:20:35;;;;;;;;;6.00;4.00;;;;;34.17;28.57;100702.81;5034418;28;45458;-75
2022/10/18 10:23:08;;;;;;;;;5.00;3.33;;;;;34.17;28.39;100695.53;5037791;28;45247;-75
2022/10/18 10:25:36;;;;;;;;;5.00;3.33;;;;;33.87;28.64;100682.16;5039605;28;45518;-74
2022/10/18 10:28:12;;;;;;;;;5.00;4.00;;;;;33.83;28.72;100680.59;5039526;28;45503;-75
2022/10/18 10:30:38;;;;;;;;;6.33;4.00;;;;;33.47;28.81;100617.84;5039119;28;45510;-75
2022/10/18 10:33:05;;;;;;;;;5.67;3.33;;;;;33.79;28.73;100693.47;5039095;28;45388;-74
2022/10/18 10:35:36;;;;;;;;;6.00;4.00;;;;;33.27;29.24;100629.09;5039481;28;45273;-74
2022/10/18 10:38:03;;;;;;;;;4.00;4.00;;;;;33.34;28.89;100686.44;5054584;28;45471;-74
2022/10/18 10:40:32;;;;;;;;;6.67;5.33;;;;;33.28;29.87;100680.44;5071807;27;46612;-74
2022/10/18 10:43:05;;;;;;;;;5.33;4.67;;;;;33.26;29.24;100660.69;5039006;28;45453;-75
2022/10/18 10:45:35;;;;;;;;;4.33;3.67;;;;;33.23;29.51;100688.00;5039053;28;45590;-75
2022/10/18 10:48:05;;;;;;;;;4.33;3.33;;;;;33.05;30.12;100671.03;5039083;28;45241;-74
2022/10/18 10:50:31;;;;;;;;;4.67;3.67;;;;;33.12;30.05;100674.25;5038820;28;46466;-75
2022/10/18 10:52:57;;;;;;;;;4.33;4.33;;;;;33.11;29.87;100677.03;5039379;28;45301;-74
2022/10/18 10:55:27;;;;;;;;;2.00;2.00;;;;;33.10;30.06;100681.59;5070920;28;45532;-75
2022/10/18 10:57:55;;;;;;;;;5.67;4.00;;;;;32.95;29.65;100669.88;5071450;28;45555;-74
2022/10/18 11:00:32;;;;;;;;;6.00;3.67;;;;;33.09;29.46;100690.69;5038296;28;46459;-74
2022/10/18 11:03:24;;;;;;;;;4.00;4.00;;;;;33.12;29.51;100685.06;5039027;28;45331;-74
2022/10/18 11:05:54;;;;;;;;;3.00;2.67;;;;;33.15;29.94;100684.91;5038821;28;45536;-74
2022/10/18 11:08:31;;;;;;;;;10.00;6.33;;;;;33.02;29.51;100679.31;5039012;28;46106;-75
2022/10/18 11:11:16;;;;;;;;;3.33;3.33;;;;;32.80;29.29;100679.78;5038821;28;45529;-75
2022/10/18 11:14:08;;;;;;;;;8.00;3.67;;;;;32.90;30.40;100680.94;5038439;28;45272;-74
2022/10/18 11:16:54;;;;;;;;;3.00;2.33;;;;;33.03;29.73;100681.09;5037441;28;45486;-74
2022/10/18 11:19:49;;;;;;;;;4.67;2.33;;;;;33.03;30.33;100664.84;5038853;28;45426;-74
2022/10/18 11:22:20;;;;;;;;;6.00;2.67;;;;;33.08;29.61;100653.72;5038320;28;46391;-74
2022/10/18 11:24:46;;;;;;;;;4.00;2.33;;;;;32.98;29.20;100658.84;5036772;28;45443;-74
2022/10/18 11:27:31;;;;;;;;;4.33;3.00;;;;;32.89;29.88;100659.41;5038311;28;45461;-75
2022/10/18 11:30:18;;;;;;;;;4.33;3.67;;;;;32.85;30.63;100650.63;5038081;28;45410;-75
2022/10/18 11:33:14;;;;;;;;;3.67;2.67;;;;;32.74;30.28;100661.22;5036701;28;46527;-74
2022/10/18 11:35:43;;;;;;;;;2.67;2.67;;;;;32.67;31.11;100652.63;5069705;28;45280;-75
2022/10/18 11:38:29;;;;;;;;;6.67;3.67;;;;;32.57;30.89;100631.63;5038249;28;45300;-75
2022/10/18 11:41:34;;;;;;;;;6.67;3.67;;;;;32.53;30.58;100638.16;5038504;28;45483;-74